Time;durP1;ratioP1;P1;durP2;ratioP2;P2;SDS_P1;SDS_P2;PMS_P1;PMS_P2;Temp;Humidity;BMP_temperature;BMP_pressure;BME280_temperature;BME280_humidity;BME280_pressure;Samples;Min_cycle;Max_cycle;Signal;HPM_P1;HPM_P2
2022/08/31 00:05:48;;;;;;;0.87;0.50;;;;;;;12.53;79.02;102520.22;5013817;28;20195;-81
2022/08/31 00:08:13;;;;;;;0.87;0.40;;;;;;;12.54;79.02;102518.53;5015666;28;20217;-83
2022/08/31 00:10:40;;;;;;;0.50;0.50;;;;;;;12.51;79.30;102509.00;5016550;28;20242;-82
2022/08/31 00:13:07;;;;;;;0.60;0.50;;;;;;;12.53;79.61;102515.06;5011987;28;20265;-79
2022/08/31 00:15:33;;;;;;;2.07;0.77;;;;;;;12.52;80.11;102508.19;5009084;28;20199;-80
2022/08/31 00:17:59;;;;;;;2.23;0.50;;;;;;;12.49;80.04;102510.63;5014515;28;20302;-80
2022/08/31 00:20:27;;;;;;;0.47;0.47;;;;;;;12.51;79.69;102510.69;5012904;28;20204;-79
2022/08/31 00:22:53;;;;;;;1.37;0.57;;;;;;;12.51;79.84;102515.84;5008255;28;20185;-79
2022/08/31 00:25:18;;;;;;;0.30;0.30;;;;;;;12.48;79.77;102501.19;5014609;28;20807;-79
2022/08/31 00:27:44;;;;;;;1.77;0.60;;;;;;;12.46;80.01;102507.97;5010306;28;20203;-80
2022/08/31 00:30:11;;;;;;;2.63;0.70;;;;;;;12.41;80.09;102506.03;5028734;28;20261;-79
2022/08/31 00:32:37;;;;;;;1.67;0.63;;;;;;;12.40;79.94;102499.16;5010828;28;20554;-80
2022/08/31 00:35:04;;;;;;;1.10;0.60;;;;;;;12.41;80.48;102503.47;5021805;28;20735;-81
2022/08/31 00:37:30;;;;;;;1.23;0.57;;;;;;;12.43;80.75;102504.38;5029734;28;20213;-81
2022/08/31 00:39:55;;;;;;;1.20;0.77;;;;;;;12.43;80.55;102505.28;5013679;28;20195;-81
2022/08/31 00:42:22;;;;;;;1.40;0.50;;;;;;;12.40;80.81;102509.41;5013888;28;20188;-79
2022/08/31 00:44:48;;;;;;;1.40;0.60;;;;;;;12.37;80.99;102501.59;5013276;28;20286;-81
2022/08/31 00:47:14;;;;;;;1.70;0.70;;;;;;;12.33;81.14;102510.88;5013558;28;20272;-79
2022/08/31 00:49:42;;;;;;;1.27;0.60;;;;;;;12.28;81.33;102507.25;5022635;28;20191;-81
2022/08/31 00:52:13;;;;;;;1.40;0.80;;;;;;;12.24;81.51;102507.94;5011620;28;20660;-80
2022/08/31 00:54:46;;;;;;;0.50;0.50;;;;;;;12.25;81.65;102507.13;5007734;28;20187;-79
2022/08/31 00:57:13;;;;;;;1.47;0.60;;;;;;;12.15;81.54;102505.00;5003685;28;20212;-81
2022/08/31 00:59:41;;;;;;;1.10;0.60;;;;;;;12.11;81.82;102503.13;5006959;28;20188;-80
2022/08/31 01:02:07;;;;;;;1.97;0.53;;;;;;;12.07;81.89;102508.09;5029368;28;20195;-80
2022/08/31 01:04:33;;;;;;;1.50;0.60;;;;;;;12.02;82.08;102507.00;5021196;28;20199;-81
2022/08/31 01:07:00;;;;;;;1.00;0.57;;;;;;;11.94;82.86;102505.84;5018539;28;20599;-81
2022/08/31 01:09:29;;;;;;;0.40;0.40;;;;;;;11.94;82.89;102501.56;5009639;28;20246;-81
2022/08/31 01:11:55;;;;;;;1.53;0.50;;;;;;;11.95;82.93;102512.72;5009258;28;20249;-80
2022/08/31 01:14:20;;;;;;;1.20;0.60;;;;;;;11.93;82.70;102509.25;5024291;28;20191;-79
2022/08/31 01:16:50;;;;;;;0.47;0.47;;;;;;;11.85;83.66;102521.72;5012979;28;20243;-80
2022/08/31 01:19:29;;;;;;;1.80;0.70;;;;;;;11.86;83.13;102515.81;5009769;28;20187;-80
2022/08/31 01:22:12;;;;;;;1.17;0.70;;;;;;;11.85;83.64;102514.03;5014194;28;20241;-80
2022/08/31 01:24:40;;;;;;;2.43;0.80;;;;;;;11.83;83.73;102520.81;5025921;28;20206;-82
2022/08/31 01:27:06;;;;;;;1.90;0.70;;;;;;;11.81;83.84;102519.88;5031877;23;20897;-74
2022/08/31 01:29:33;;;;;;;2.17;0.70;;;;;;;11.77;84.00;102523.13;4989813;28;20204;-74
2022/08/31 01:31:59;;;;;;;1.30;0.70;;;;;;;11.76;83.90;102531.63;4989541;28;20192;-74
2022/08/31 01:34:25;;;;;;;0.60;0.60;;;;;;;11.73;84.09;102531.50;4998777;28;20219;-74
2022/08/31 01:36:51;;;;;;;1.93;0.50;;;;;;;11.71;84.20;102535.69;4989457;28;20188;-74
2022/08/31 01:39:18;;;;;;;0.60;0.60;;;;;;;11.65;84.28;102526.84;4972048;28;20288;-74
2022/08/31 01:41:44;;;;;;;2.30;0.60;;;;;;;11.64;84.11;102536.25;5005735;28;20614;-74
2022/08/31 01:44:15;;;;;;;1.13;0.60;;;;;;;11.62;84.35;102534.44;4987965;28;20283;-74
2022/08/31 01:46:43;;;;;;;1.50;0.60;;;;;;;11.58;84.12;102532.53;4989094;28;20203;-74
2022/08/31 01:49:09;;;;;;;0.60;0.50;;;;;;;11.54;84.19;102528.97;4988218;28;20333;-74
2022/08/31 01:51:34;;;;;;;1.03;0.50;;;;;;;11.48;84.07;102536.38;4980884;28;20223;-74
2022/08/31 01:54:01;;;;;;;1.30;0.70;;;;;;;11.46;84.25;102547.38;4987899;28;20304;-74
2022/08/31 01:56:33;;;;;;;1.30;0.67;;;;;;;11.39;85.26;102546.22;4989575;28;20200;-74
2022/08/31 01:59:01;;;;;;;1.17;0.60;;;;;;;11.38;85.81;102541.06;4987646;28;20203;-74
2022/08/31 02:01:47;;;;;;;2.20;0.70;;;;;;;11.42;85.62;102542.94;4995720;28;20267;-74
2022/08/31 02:04:16;;;;;;;1.27;0.67;;;;;;;11.37;86.49;102547.88;4997278;28;20187;-74
2022/08/31 02:06:44;;;;;;;0.70;0.57;;;;;;;11.36;85.83;102550.38;4995310;28;20642;-74
2022/08/31 02:09:11;;;;;;;1.43;0.70;;;;;;;11.36;86.09;102550.38;4994456;28;20188;-74
2022/08/31 02:11:37;;;;;;;0.70;0.70;;;;;;;11.32;86.25;102551.94;4999645;28;20260;-74
2022/08/31 02:14:03;;;;;;;0.70;0.70;;;;;;;11.32;85.69;102553.59;4987279;28;20636;-74
2022/08/31 02:16:29;;;;;;;0.40;0.40;;;;;;;11.27;85.89;102549.97;4982554;28;20626;-73
2022/08/31 02:18:54;;;;;;;1.00;0.70;;;;;;;11.24;85.34;102553.28;5003079;28;20240;-73
2022/08/31 02:21:21;;;;;;;2.20;0.80;;;;;;;11.21;85.56;102558.28;5002624;28;20195;-73
2022/08/31 02:23:46;;;;;;;1.00;0.70;;;;;;;11.20;86.59;102550.53;4987810;28;20206;-73
2022/08/31 02:26:13;;;;;;;1.47;0.90;;;;;;;11.20;86.81;102546.25;4996621;28;20223;-72
2022/08/31 02:28:40;;;;;;;0.90;0.80;;;;;;;11.15;86.57;102549.44;4989358;28;20226;-73
2022/08/31 02:31:07;;;;;;;2.17;0.60;;;;;;;11.12;86.64;102544.16;4996674;28;20235;-73
2022/08/31 02:33:43;;;;;;;3.20;0.90;;;;;;;11.10;86.13;102543.22;4999834;28;20192;-73
2022/08/31 02:36:09;;;;;;;1.13;0.80;;;;;;;11.07;86.72;102533.69;4995956;28;20257;-73
2022/08/31 02:38:36;;;;;;;1.10;0.77;;;;;;;11.06;86.83;102537.06;4989930;28;20682;-74
2022/08/31 02:41:02;;;;;;;1.30;0.83;;;;;;;11.03;86.84;102543.75;5007719;28;20179;-74
2022/08/31 02:43:28;;;;;;;0.90;0.80;;;;;;;11.01;86.41;102532.56;4989458;28;20258;-74
2022/08/31 02:45:53;;;;;;;0.70;0.70;;;;;;;10.96;86.10;102532.34;4987561;28;20679;-74
2022/08/31 02:48:23;;;;;;;1.07;0.77;;;;;;;10.90;86.37;102532.09;4988030;28;20212;-74
2022/08/31 02:50:51;;;;;;;1.07;0.77;;;;;;;10.91;86.19;102535.50;4990229;28;20222;-75
2022/08/31 02:53:19;;;;;;;2.17;0.60;;;;;;;10.89;85.98;102526.88;4986562;28;20196;-74
2022/08/31 02:55:46;;;;;;;2.77;0.70;;;;;;;10.88;86.23;102530.25;4988801;28;20198;-74
2022/08/31 02:58:13;;;;;;;2.57;0.80;;;;;;;10.82;86.70;102533.41;4989576;28;20207;-75
2022/08/31 03:00:43;;;;;;;0.77;0.70;;;;;;;10.83;86.36;102529.19;4988696;28;20180;-75
2022/08/31 03:03:09;;;;;;;0.47;0.47;;;;;;;10.80;86.40;102529.91;4995379;28;20195;-74
2022/08/31 03:05:34;;;;;;;1.73;0.70;;;;;;;10.78;86.65;102523.81;4995070;28;20187;-74
2022/08/31 03:08:00;;;;;;;1.10;0.80;;;;;;;10.73;87.60;102521.88;4988520;28;20207;-74
2022/08/31 03:10:25;;;;;;;1.40;0.80;;;;;;;10.71;86.90;102528.59;4988388;28;20646;-74
2022/08/31 03:12:52;;;;;;;1.60;0.70;;;;;;;10.65;86.93;102526.63;4978886;28;20223;-74
2022/08/31 03:15:20;;;;;;;1.63;0.60;;;;;;;10.64;86.76;102524.88;4977986;28;20335;-74
2022/08/31 03:17:46;;;;;;;1.10;0.60;;;;;;;10.66;87.26;102527.53;5001811;28;20606;-75
2022/08/31 03:20:13;;;;;;;1.77;0.60;;;;;;;10.63;87.29;102522.25;4982066;28;20226;-74
2022/08/31 03:22:39;;;;;;;0.67;0.60;;;;;;;10.61;87.62;102526.44;4999101;28;20666;-74
2022/08/31 03:25:05;;;;;;;0.80;0.80;;;;;;;10.58;87.56;102519.50;4991202;28;20219;-75
2022/08/31 03:27:31;;;;;;;1.10;0.60;;;;;;;10.57;86.97;102512.63;5009175;28;20694;-74
2022/08/31 03:29:57;;;;;;;1.37;0.77;;;;;;;10.55;86.97;102521.03;4991581;28;20214;-74
2022/08/31 03:32:26;;;;;;;2.43;0.77;;;;;;;10.54;87.75;102524.38;4990785;28;20199;-74
2022/08/31 03:34:58;;;;;;;0.60;0.60;;;;;;;10.52;86.91;102528.56;4985597;28;20818;-74
2022/08/31 03:37:24;;;;;;;2.53;0.97;;;;;;;10.48;87.30;102519.00;4989566;28;20885;-74
2022/08/31 03:39:52;;;;;;;1.23;0.60;;;;;;;10.46;87.58;102525.75;4990570;28;20233;-74
2022/08/31 03:42:18;;;;;;;0.80;0.80;;;;;;;10.40;87.36;102518.63;4989059;28;20192;-75
2022/08/31 03:44:45;;;;;;;1.70;0.77;;;;;;;10.39;87.60;102526.25;4991823;28;20195;-75
2022/08/31 03:47:18;;;;;;;1.60;0.73;;;;;;;10.36;87.25;102531.19;5001051;28;20214;-74
2022/08/31 03:49:44;;;;;;;0.60;0.60;;;;;;;10.34;87.21;102532.81;4992075;28;20203;-74
2022/08/31 03:52:20;;;;;;;0.87;0.70;;;;;;;10.28;88.34;102528.28;4989881;28;20203;-74
2022/08/31 03:54:51;;;;;;;1.03;0.93;;;;;;;10.30;87.61;102536.94;4990036;28;20276;-73
2022/08/31 03:57:17;;;;;;;1.87;1.00;;;;;;;10.30;88.29;102529.25;4989136;28;20219;-74
2022/08/31 03:59:43;;;;;;;1.77;0.80;;;;;;;10.26;87.93;102540.16;4990801;28;20206;-73
2022/08/31 04:02:17;;;;;;;0.80;0.80;;;;;;;10.24;88.06;102539.22;4989547;28;20226;-73
2022/08/31 04:05:03;;;;;;;1.47;0.83;;;;;;;10.23;88.34;102541.69;5003372;28;20196;-74
2022/08/31 04:07:52;;;;;;;1.53;0.70;;;;;;;10.21;88.06;102535.59;4962883;28;20216;-73
2022/08/31 04:10:41;;;;;;;1.10;0.70;;;;;;;10.22;88.20;102539.91;4990393;28;20231;-74
2022/08/31 04:13:25;;;;;;;0.63;0.60;;;;;;;10.21;88.25;102540.72;4988792;28;20326;-74
2022/08/31 04:16:16;;;;;;;4.00;0.90;;;;;;;10.15;87.46;102550.69;4987895;28;20708;-74
2022/08/31 04:19:01;;;;;;;2.73;0.80;;;;;;;10.12;87.09;102546.28;4987969;28;20765;-74
2022/08/31 04:21:31;;;;;;;1.50;0.87;;;;;;;10.10;87.38;102547.88;4983784;28;20194;-74
2022/08/31 04:23:59;;;;;;;1.23;0.90;;;;;;;10.08;87.22;102548.63;5002534;28;20195;-75
2022/08/31 04:26:33;;;;;;;2.80;1.07;;;;;;;10.08;87.95;102544.38;4990616;28;20191;-74
2022/08/31 04:28:59;;;;;;;2.13;0.70;;;;;;;10.07;87.82;102542.63;5000898;28;20230;-74
2022/08/31 04:31:25;;;;;;;1.33;0.90;;;;;;;10.09;87.56;102552.94;4981266;28;20208;-74
2022/08/31 04:33:51;;;;;;;3.40;1.00;;;;;;;10.07;87.83;102555.44;4971007;28;20247;-74
2022/08/31 04:36:20;;;;;;;1.33;0.80;;;;;;;10.06;87.28;102560.47;4993888;28;20501;-75
2022/08/31 04:38:50;;;;;;;1.17;0.70;;;;;;;10.04;87.63;102556.94;5001710;28;20311;-74
2022/08/31 04:41:18;;;;;;;2.00;0.90;;;;;;;10.02;88.20;102553.41;4999606;28;20557;-75
2022/08/31 04:43:47;;;;;;;1.23;0.90;;;;;;;10.09;88.71;102558.94;4986021;28;20581;-75
2022/08/31 04:46:13;;;;;;;1.03;0.80;;;;;;;10.16;89.05;102560.09;4999028;28;20183;-74
2022/08/31 04:48:39;;;;;;;2.43;0.77;;;;;;;10.14;89.75;102560.03;4988179;28;20214;-74
2022/08/31 04:51:17;;;;;;;1.40;0.87;;;;;;;10.18;89.52;102564.50;4987235;28;20583;-74
2022/08/31 04:53:42;;;;;;;0.90;0.90;;;;;;;10.23;89.67;102564.72;5001572;28;20222;-74
2022/08/31 04:56:13;;;;;;;1.17;1.00;;;;;;;10.26;90.39;102563.19;4998270;28;20191;-74
2022/08/31 04:58:52;;;;;;;1.77;0.70;;;;;;;10.31;90.66;102558.28;4986019;28;20298;-74
2022/08/31 05:01:22;;;;;;;2.77;0.90;;;;;;;10.35;91.28;102560.19;4985958;28;20573;-74
2022/08/31 05:04:08;;;;;;;1.87;1.03;;;;;;;10.38;91.32;102553.56;4985517;28;20215;-74
2022/08/31 05:06:37;;;;;;;0.97;0.80;;;;;;;10.44;91.04;102552.94;4985673;28;20190;-74
2022/08/31 05:09:06;;;;;;;2.73;0.90;;;;;;;10.55;91.54;102555.19;4987524;28;20235;-73
2022/08/31 05:11:33;;;;;;;1.50;1.00;;;;;;;10.64;91.77;102552.22;4985410;28;20204;-73
2022/08/31 05:14:00;;;;;;;1.60;1.00;;;;;;;10.79;92.19;102551.19;4985845;28;20203;-73
2022/08/31 05:16:26;;;;;;;2.60;1.00;;;;;;;10.92;92.14;102556.09;4981202;28;20223;-73
2022/08/31 05:18:52;;;;;;;1.60;0.97;;;;;;;11.02;92.62;102553.13;4998348;28;20290;-75
2022/08/31 05:21:30;;;;;;;3.40;1.00;;;;;;;11.17;92.55;102553.81;4990650;28;20623;-75
2022/08/31 05:23:58;;;;;;;1.67;0.97;;;;;;;11.32;91.87;102559.63;4985865;28;20655;-75
2022/08/31 05:26:26;;;;;;;8.40;1.50;;;;;;;11.46;91.30;102549.94;4989809;28;20254;-75
2022/08/31 05:28:53;;;;;;;4.40;1.10;;;;;;;11.60;91.15;102554.91;4987591;28;20219;-75
2022/08/31 05:31:20;;;;;;;2.63;1.20;;;;;;;11.79;90.13;102557.44;4990174;28;20231;-74
2022/08/31 05:33:47;;;;;;;5.57;1.13;;;;;;;11.92;89.17;102558.81;4988133;28;20695;-74
2022/08/31 05:36:14;;;;;;;2.30;0.97;;;;;;;12.08;88.78;102559.50;4990877;28;20196;-75
2022/08/31 05:38:40;;;;;;;2.23;1.03;;;;;;;12.21;88.54;102561.75;4988866;28;20203;-74
2022/08/31 05:41:07;;;;;;;2.93;1.10;;;;;;;12.40;88.14;102556.53;4974062;28;20179;-74
2022/08/31 05:43:33;;;;;;;2.90;1.20;;;;;;;12.57;87.64;102564.88;4998552;28;20593;-74
2022/08/31 05:45:59;;;;;;;7.53;1.30;;;;;;;12.71;87.20;102562.03;4986772;28;20198;-74
2022/08/31 05:48:26;;;;;;;1.37;1.00;;;;;;;12.85;86.47;102567.69;4989925;28;20238;-74
2022/08/31 05:50:53;;;;;;;2.83;1.30;;;;;;;12.97;86.06;102570.78;5001706;28;20204;-74
2022/08/31 05:53:19;;;;;;;2.47;1.10;;;;;;;13.11;85.00;102569.59;4989986;28;20187;-74
2022/08/31 05:55:44;;;;;;;3.30;1.20;;;;;;;13.26;84.33;102567.56;4987208;28;20190;-74
2022/08/31 05:58:11;;;;;;;3.47;1.23;;;;;;;13.40;84.58;102578.38;4996957;28;20211;-74
2022/08/31 06:00:38;;;;;;;5.87;1.30;;;;;;;13.56;83.63;102573.81;4999152;28;20525;-74
2022/08/31 06:03:24;;;;;;;4.43;1.50;;;;;;;13.72;82.93;102567.50;4987222;28;20233;-74
2022/08/31 06:05:51;;;;;;;3.37;1.30;;;;;;;13.87;82.88;102579.19;4988623;28;20188;-74
2022/08/31 06:08:19;;;;;;;6.63;1.23;;;;;;;14.04;82.30;102578.03;4989527;28;20211;-74
2022/08/31 06:10:48;;;;;;;2.83;1.10;;;;;;;14.21;81.39;102570.91;4988111;28;20266;-74
2022/08/31 06:13:17;;;;;;;3.40;1.13;;;;;;;14.38;80.54;102575.78;4997082;28;20199;-74
2022/08/31 06:15:43;;;;;;;4.83;1.10;;;;;;;14.49;80.14;102576.09;4981535;28;20572;-74
2022/08/31 06:18:09;;;;;;;2.07;0.90;;;;;;;14.66;79.36;102577.50;4996223;28;20208;-74
2022/08/31 06:20:36;;;;;;;2.27;0.87;;;;;;;14.82;79.06;102578.00;4988613;28;20180;-74
2022/08/31 06:23:07;;;;;;;2.70;0.97;;;;;;;14.98;78.68;102580.22;5005504;28;20689;-74
2022/08/31 06:25:42;;;;;;;2.90;0.87;;;;;;;15.09;77.20;102575.34;4989329;28;20245;-74
2022/08/31 06:28:13;;;;;;;2.80;0.80;;;;;;;15.25;77.19;102577.56;4990432;28;20251;-74
2022/08/31 06:30:38;;;;;;;1.97;0.83;;;;;;;15.42;76.35;102579.81;4986904;28;20204;-74
2022/08/31 06:33:08;;;;;;;2.70;0.80;;;;;;;15.59;75.53;102569.94;4987182;28;20272;-74
2022/08/31 06:35:55;;;;;;;3.03;0.80;;;;;;;15.81;74.78;102565.38;4991280;28;20227;-74
2022/08/31 06:38:46;;;;;;;2.27;0.83;;;;;;;16.01;74.38;102565.88;4984566;28;20255;-74
2022/08/31 06:41:34;;;;;;;1.47;0.60;;;;;;;16.15;73.12;102565.38;4997198;28;20279;-74
2022/08/31 06:44:26;;;;;;;2.60;0.80;;;;;;;16.33;72.14;102562.34;4986488;28;20192;-74
2022/08/31 06:47:05;;;;;;;1.40;0.77;;;;;;;16.53;72.43;102563.75;4987468;28;20188;-74
2022/08/31 06:49:34;;;;;;;3.63;0.70;;;;;;;16.60;71.84;102563.91;4986743;28;20185;-74
2022/08/31 06:51:59;;;;;;;2.40;0.80;;;;;;;16.78;70.89;102560.84;4988137;28;20222;-74
2022/08/31 06:54:26;;;;;;;7.03;0.90;;;;;;;16.97;69.92;102565.56;4988803;28;20196;-74
2022/08/31 06:57:12;;;;;;;2.30;0.70;;;;;;;17.17;69.25;102562.56;4967360;28;20243;-74
2022/08/31 06:59:52;;;;;;;2.77;0.80;;;;;;;17.40;69.13;102557.88;4990511;28;20230;-74
2022/08/31 07:02:38;;;;;;;1.77;0.70;;;;;;;17.58;68.46;102561.66;4989112;28;20266;-74
2022/08/31 07:05:04;;;;;;;3.50;0.50;;;;;;;17.63;68.06;102556.56;4988529;28;20654;-74
2022/08/31 07:07:30;;;;;;;1.83;0.60;;;;;;;17.66;68.23;102564.38;4994214;28;20204;-74
2022/08/31 07:09:56;;;;;;;1.47;0.57;;;;;;;17.94;67.66;102564.03;4988332;28;20726;-74
2022/08/31 07:12:23;;;;;;;0.67;0.50;;;;;;;18.16;66.98;102567.03;4990169;28;20666;-74
2022/08/31 07:14:48;;;;;;;3.63;0.83;;;;;;;18.36;66.51;102565.63;4989575;28;20203;-74
2022/08/31 07:17:14;;;;;;;2.30;0.60;;;;;;;18.64;66.14;102561.72;4995882;28;20628;-74
2022/08/31 07:19:39;;;;;;;0.90;0.70;;;;;;;18.83;64.88;102559.41;4996710;28;20194;-74
2022/08/31 07:22:08;;;;;;;1.07;0.63;;;;;;;19.01;64.07;102563.94;4997434;28;20270;-74
2022/08/31 07:24:35;;;;;;;1.87;0.70;;;;;;;19.11;63.30;102565.81;4988188;28;20195;-74
2022/08/31 07:27:08;;;;;;;1.93;0.90;;;;;;;19.25;62.64;102565.16;4988370;28;20195;-76
2022/08/31 07:29:43;;;;;;;2.13;0.80;;;;;;;19.36;62.44;102568.75;4985796;28;20677;-74
2022/08/31 07:32:13;;;;;;;2.23;0.70;;;;;;;19.67;60.72;102564.75;5001093;28;20286;-73
2022/08/31 07:34:40;;;;;;;1.20;0.70;;;;;;;19.86;61.22;102558.88;4989507;28;20211;-74
2022/08/31 07:42:45;;;;;;;0.93;0.73;;;;;;;20.44;58.55;102561.97;4986849;28;20196;-75
2022/08/31 07:45:20;;;;;;;1.57;0.60;;;;;;;20.64;58.59;102562.09;4972483;28;20226;-74
2022/08/31 07:47:51;;;;;;;1.27;0.50;;;;;;;20.81;56.99;102558.72;4983923;28;20266;-74
2022/08/31 07:50:20;;;;;;;0.93;0.73;;;;;;;20.73;56.11;102559.53;4987756;28;20299;-74
2022/08/31 07:53:07;;;;;;;1.13;0.70;;;;;;;21.04;56.31;102561.44;4990034;28;20206;-74
2022/08/31 07:55:57;;;;;;;1.90;0.60;;;;;;;21.27;53.96;102565.00;4959621;28;20204;-74
2022/08/31 07:58:30;;;;;;;3.47;0.93;;;;;;;21.54;53.91;102565.97;4996883;28;20306;-74
2022/08/31 08:00:58;;;;;;;0.80;0.67;;;;;;;21.53;53.59;102577.28;4995655;28;20883;-75
2022/08/31 08:03:28;;;;;;;2.40;0.67;;;;;;;21.79;53.16;102569.53;4997896;28;20215;-74
2022/08/31 08:06:15;;;;;;;1.30;0.70;;;;;;;21.89;53.24;102574.72;4988560;28;20230;-74
2022/08/31 08:08:56;;;;;;;1.23;0.70;;;;;;;22.04;52.39;102576.50;4987034;28;20212;-74
2022/08/31 08:11:43;;;;;;;1.50;0.97;;;;;;;22.18;52.47;102573.03;4992834;28;20210;-75
2022/08/31 08:14:37;;;;;;;1.20;0.90;;;;;;;22.49;51.82;102573.88;4997116;28;20196;-75
2022/08/31 08:17:12;;;;;;;1.47;0.80;;;;;;;22.54;50.48;102569.53;4997454;28;20595;-75
2022/08/31 08:19:43;;;;;;;1.83;0.90;;;;;;;22.79;50.34;102581.63;4987601;28;20717;-75
2022/08/31 08:22:08;;;;;;;1.30;0.70;;;;;;;22.82;47.68;102572.91;4990802;28;20184;-75
2022/08/31 08:24:54;;;;;;;1.00;0.80;;;;;;;22.94;47.67;102570.28;4971334;28;20647;-75
2022/08/31 08:27:43;;;;;;;0.80;0.60;;;;;;;23.08;47.27;102577.19;4979437;28;20240;-75
2022/08/31 08:30:13;;;;;;;1.13;0.80;;;;;;;23.20;46.50;102566.72;4998836;28;20777;-75
2022/08/31 08:32:41;;;;;;;1.13;0.70;;;;;;;23.40;45.12;102572.72;4982435;28;20251;-75
2022/08/31 08:35:09;;;;;;;1.07;0.63;;;;;;;23.39;44.66;102565.72;4993810;28;20198;-75
2022/08/31 08:37:40;;;;;;;2.00;0.70;;;;;;;23.67;44.58;102569.91;5001664;28;20212;-75
2022/08/31 08:40:20;;;;;;;2.40;0.93;;;;;;;23.93;44.28;102569.75;4996443;28;20650;-75
2022/08/31 08:42:46;;;;;;;0.70;0.50;;;;;;;24.02;44.55;102569.69;4983988;28;20192;-75
2022/08/31 08:45:11;;;;;;;1.80;0.68;;;;;;;23.93;42.62;102562.78;4991115;28;20598;-75
2022/08/31 08:47:38;;;;;;;1.50;0.93;;;;;;;24.03;43.68;102567.06;4982711;28;20219;-75
2022/08/31 08:50:06;;;;;;;1.43;0.70;;;;;;;24.19;43.22;102563.44;5001989;28;20243;-74
2022/08/31 08:52:41;;;;;;;1.73;0.88;;;;;;;24.68;43.46;102569.97;4985731;28;20211;-75
2022/08/31 08:55:17;;;;;;;2.50;0.70;;;;;;;24.93;42.94;102566.19;4985639;28;20613;-75
2022/08/31 08:57:45;;;;;;;3.97;0.70;;;;;;;25.04;43.17;102560.81;4987400;28;20372;-74
2022/08/31 09:00:14;;;;;;;1.08;0.68;;;;;;;24.92;42.17;102567.09;4990519;28;20647;-74
2022/08/31 09:02:56;;;;;;;1.52;0.93;;;;;;;25.25;42.33;102565.75;4986600;28;20247;-74
2022/08/31 09:06:08;;;;;;;2.15;0.80;;;;;;;25.24;42.45;102564.03;5005484;28;20246;-74
2022/08/31 09:08:50;;;;;;;1.58;0.82;;;;;;;25.53;41.75;102556.66;4983186;28;20208;-74
2022/08/31 09:11:22;;;;;;;1.38;0.90;;;;;;;25.87;40.82;102560.53;4987745;28;20207;-74
2022/08/31 09:14:14;;;;;;;1.15;0.88;;;;;;;26.19;39.27;102566.09;4990586;28;20211;-74
2022/08/31 09:16:53;;;;;;;2.15;0.70;;;;;;;26.26;39.43;102562.50;4995768;28;20192;-75
2022/08/31 09:19:20;;;;;;;1.10;0.90;;;;;;;26.54;38.60;102561.09;4984467;28;20651;-75
2022/08/31 09:21:52;;;;;;;2.25;0.80;;;;;;;26.45;38.82;102563.88;4999204;28;20788;-75
2022/08/31 09:24:21;;;;;;;0.93;0.60;;;;;;;26.13;38.62;102563.59;4987109;28;20192;-75
2022/08/31 09:27:18;;;;;;;1.63;0.90;;;;;;;26.69;38.10;102551.19;4984659;28;20224;-76
2022/08/31 09:29:59;;;;;;;1.58;0.93;;;;;;;27.21;37.42;102546.59;4986270;28;20187;-76
2022/08/31 09:32:27;;;;;;;0.80;0.80;;;;;;;27.93;35.18;102552.81;4989217;28;20263;-75
2022/08/31 09:34:59;;;;;;;1.25;1.00;;;;;;;27.60;34.97;102555.38;4989880;28;20192;-74
2022/08/31 09:37:32;;;;;;;1.10;1.00;;;;;;;27.38;34.52;102547.09;4991846;28;20218;-74
2022/08/31 09:40:16;;;;;;;0.80;0.80;;;;;;;27.97;35.32;102549.22;4986700;28;20204;-74
2022/08/31 09:42:45;;;;;;;2.35;0.90;;;;;;;28.07;34.92;102552.47;4987026;28;20191;-74
2022/08/31 09:45:28;;;;;;;1.23;1.00;;;;;;;28.07;35.22;102555.97;4989363;28;20200;-74
2022/08/31 09:47:59;;;;;;;1.05;0.80;;;;;;;28.15;34.75;102553.16;4997950;28;20247;-74
2022/08/31 09:50:25;;;;;;;1.10;0.80;;;;;;;27.86;34.39;102545.97;4988456;28;20200;-74
2022/08/31 09:56:04;;;;;;;1.00;0.80;;;;;;;27.53;35.60;102548.53;4990562;28;20238;-75
2022/08/31 09:58:32;;;;;;;1.10;1.00;;;;;;;27.94;35.53;102543.13;4995052;28;20207;-74
2022/08/31 10:01:11;;;;;;;1.05;0.98;;;;;;;28.12;34.32;102548.81;5005240;28;20702;-75
2022/08/31 10:03:43;;;;;;;2.00;0.95;;;;;;;28.02;34.99;102538.53;5004243;28;20678;-74
2022/08/31 10:06:40;;;;;;;3.42;0.98;;;;;;;28.21;35.12;102540.66;4986198;28;20192;-74
2022/08/31 10:09:13;;;;;;;2.30;0.95;;;;;;;28.55;34.12;102538.88;4989796;28;20214;-74
2022/08/31 10:11:43;;;;;;;1.10;0.90;;;;;;;27.49;33.76;102533.69;4986949;28;20208;-75
2022/08/31 10:14:34;;;;;;;0.98;0.80;;;;;;;26.74;36.06;102541.44;4988533;28;20274;-74
2022/08/31 10:17:15;;;;;;;5.15;1.20;;;;;;;26.51;35.72;102543.63;4990031;28;20207;-74
2022/08/31 10:20:04;;;;;;;1.30;0.80;;;;;;;27.21;36.65;102538.69;4984913;28;20196;-74
2022/08/31 10:22:44;;;;;;;0.80;0.80;;;;;;;28.07;35.56;102537.53;4988724;28;20186;-74
2022/08/31 10:25:35;;;;;;;1.90;0.65;;;;;;;28.66;33.51;102536.81;4987481;28;20274;-75
2022/08/31 10:28:30;;;;;;;1.67;0.80;;;;;;;28.92;32.74;102536.91;4989859;28;20216;-75
2022/08/31 10:31:12;;;;;;;1.52;0.77;;;;;;;28.26;33.25;102537.91;5004271;28;20266;-74
2022/08/31 10:36:38;;;;;;;1.02;0.93;;;;;;;28.83;32.38;102529.28;4990914;28;20274;-74
2022/08/31 10:39:17;;;;;;;1.13;0.80;;;;;;;28.72;32.26;102531.38;4994390;28;20558;-75
2022/08/31 10:41:48;;;;;;;1.45;0.82;;;;;;;27.60;33.44;102544.84;4989949;28;20219;-76
2022/08/31 10:44:31;;;;;;;1.13;0.77;;;;;;;27.86;33.11;102531.94;4994226;28;20199;-74
2022/08/31 10:47:01;;;;;;;1.48;0.85;;;;;;;28.29;33.79;102524.66;4988173;28;20616;-75
2022/08/31 10:49:27;;;;;;;1.90;0.70;;;;;;;28.87;33.21;102527.44;4989935;28;20188;-75
2022/08/31 10:52:10;;;;;;;0.85;0.68;;;;;;;28.90;32.48;102522.03;4988097;28;20219;-75
2022/08/31 10:54:46;;;;;;;3.53;0.75;;;;;;;28.63;32.39;102520.19;4990445;28;20278;-74
2022/08/31 10:57:31;;;;;;;1.48;0.75;;;;;;;28.54;32.55;102523.97;4987611;28;20760;-74
2022/08/31 10:59:56;;;;;;;0.80;0.80;;;;;;;28.38;32.43;102524.41;4989232;28;20187;-75
2022/08/31 11:02:37;;;;;;;1.98;0.80;;;;;;;28.42;33.23;102513.75;4990122;28;20526;-74
2022/08/31 11:05:17;;;;;;;2.97;0.70;;;;;;;28.41;32.77;102514.66;4989916;28;20559;-74
2022/08/31 11:08:20;;;;;;;1.42;1.00;;;;;;;29.50;31.69;102501.69;4987480;28;20306;-75
2022/08/31 11:10:52;;;;;;;1.10;0.90;;;;;;;29.98;30.79;102508.91;4987631;28;20246;-75
2022/08/31 11:13:30;;;;;;;1.20;0.80;;;;;;;29.23;31.33;102503.44;5002051;28;20203;-75
2022/08/31 11:16:25;;;;;;;0.80;0.65;;;;;;;29.54;31.62;102508.63;4989926;28;20191;-75
2022/08/31 11:19:12;;;;;;;0.85;0.70;;;;;;;28.83;31.25;102512.59;4962667;28;20215;-75
2022/08/31 11:22:11;;;;;;;1.45;0.93;;;;;;;29.92;31.24;102505.59;4990183;28;20214;-74
2022/08/31 11:24:37;;;;;;;1.40;0.68;;;;;;;29.88;30.80;102494.28;4990008;28;20602;-75
2022/08/31 11:27:17;;;;;;;0.95;0.75;;;;;;;30.26;30.67;102498.28;4990031;28;20195;-74
2022/08/31 11:29:56;;;;;;;1.75;0.80;;;;;;;29.63;30.17;102495.16;4980983;28;20557;-74
2022/08/31 11:32:36;;;;;;;1.05;0.80;;;;;;;29.91;30.68;102486.25;4986918;28;20278;-74
2022/08/31 11:35:09;;;;;;;0.77;0.77;;;;;;;29.02;31.32;102503.25;4990365;28;20175;-74
2022/08/31 11:37:50;;;;;;;3.90;1.00;;;;;;;28.80;31.25;102500.34;4988939;28;20222;-74
2022/08/31 11:40:40;;;;;;;1.88;0.90;;;;;;;28.86;31.96;102496.66;4984978;28;20188;-73
2022/08/31 11:43:07;;;;;;;1.50;1.00;;;;;;;29.44;31.47;102486.94;4987399;28;20199;-76
2022/08/31 11:45:36;;;;;;;1.83;0.80;;;;;;;28.84;32.43;102490.56;4992445;28;20259;-75
2022/08/31 11:48:04;;;;;;;3.20;0.90;;;;;;;29.61;31.16;102489.91;4993607;28;20207;-73
2022/08/31 11:50:35;;;;;;;1.15;0.90;;;;;;;29.96;31.09;102479.03;4991091;28;20196;-75
2022/08/31 11:53:31;;;;;;;1.05;0.77;;;;;;;30.39;30.34;102470.47;4993262;28;20194;-75
2022/08/31 11:56:05;;;;;;;1.60;0.68;;;;;;;29.76;31.27;102473.53;4990907;28;20184;-75
2022/08/31 11:58:38;;;;;;;2.90;0.73;;;;;;;29.74;31.27;102469.22;4989944;28;20262;-75
2022/08/31 12:01:30;;;;;;;1.30;0.90;;;;;;;30.19;29.74;102469.47;4991744;28;20184;-75
2022/08/31 12:04:03;;;;;;;1.23;0.85;;;;;;;30.31;30.17;102466.34;4989606;28;20230;-74